sensor_id;sensor_type;location;lat;lon;timestamp;P1;P2;P0
77515;PMS5003;66627;29.424;-98.496;2023-04-25T00:00:48;16;13;
77515;PMS5003;66627;29.424;-98.496;2023-04-25T00:03:13;14;13;
77515;PMS5003;66627;29.424;-98.496;2023-04-25T00:05:38;15;15;
77515;PMS5003;66627;29.424;-98.496;2023-04-25T00:08:04;14;12;
77515;PMS5003;66627;29.424;-98.496;2023-04-25T00:10:30;14;12;
77515;PMS5003;66627;29.424;-98.496;2023-04-25T00:12:55;13;13;
77515;PMS5003;66627;29.424;-98.496;2023-04-25T00:15:21;11;11;
77515;PMS5003;66627;29.424;-98.496;2023-04-25T00:17:46;16;16;
77515;PMS5003;66627;29.424;-98.496;2023-04-25T00:22:37;16;14;
77515;PMS5003;66627;29.424;-98.496;2023-04-25T00:25:03;10;10;
77515;PMS5003;66627;29.424;-98.496;2023-04-25T00:27:29;10;10;
77515;PMS5003;66627;29.424;-98.496;2023-04-25T00:29:53;11;11;
77515;PMS5003;66627;29.424;-98.496;2023-04-25T00:32:18;11;11;
77515;PMS5003;66627;29.424;-98.496;2023-04-25T00:34:44;11;11;
77515;PMS5003;66627;29.424;-98.496;2023-04-25T00:37:09;11;10;
77515;PMS5003;66627;29.424;-98.496;2023-04-25T00:39:35;10;10;
77515;PMS5003;66627;29.424;-98.496;2023-04-25T00:42:00;10;10;
77515;PMS5003;66627;29.424;-98.496;2023-04-25T00:44:25;13;12;
77515;PMS5003;66627;29.424;-98.496;2023-04-25T00:46:51;13;11;
77515;PMS5003;66627;29.424;-98.496;2023-04-25T00:49:16;12;12;
77515;PMS5003;66627;29.424;-98.496;2023-04-25T00:51:41;12;10;
77515;PMS5003;66627;29.424;-98.496;2023-04-25T00:54:06;15;13;
77515;PMS5003;66627;29.424;-98.496;2023-04-25T00:56:31;15;12;
77515;PMS5003;66627;29.424;-98.496;2023-04-25T00:58:58;11;11;
77515;PMS5003;66627;29.424;-98.496;2023-04-25T01:01:23;10;10;
77515;PMS5003;66627;29.424;-98.496;2023-04-25T01:03:48;15;12;
77515;PMS5003;66627;29.424;-98.496;2023-04-25T01:06:13;13;13;
77515;PMS5003;66627;29.424;-98.496;2023-04-25T01:08:38;9;9;
77515;PMS5003;66627;29.424;-98.496;2023-04-25T01:11:04;10;10;
77515;PMS5003;66627;29.424;-98.496;2023-04-25T01:13:29;10;10;
77515;PMS5003;66627;29.424;-98.496;2023-04-25T01:15:54;12;11;
77515;PMS5003;66627;29.424;-98.496;2023-04-25T01:18:20;14;12;
77515;PMS5003;66627;29.424;-98.496;2023-04-25T01:20:45;13;12;
77515;PMS5003;66627;29.424;-98.496;2023-04-25T01:23:10;13;12;
77515;PMS5003;66627;29.424;-98.496;2023-04-25T01:25:36;11;9;
77515;PMS5003;66627;29.424;-98.496;2023-04-25T01:28:01;13;12;
77515;PMS5003;66627;29.424;-98.496;2023-04-25T01:30:27;13;11;
77515;PMS5003;66627;29.424;-98.496;2023-04-25T01:32:52;11;11;
77515;PMS5003;66627;29.424;-98.496;2023-04-25T01:35:17;12;10;
77515;PMS5003;66627;29.424;-98.496;2023-04-25T01:37:43;11;11;
77515;PMS5003;66627;29.424;-98.496;2023-04-25T01:40:08;12;12;
77515;PMS5003;66627;29.424;-98.496;2023-04-25T01:42:34;10;9;
77515;PMS5003;66627;29.424;-98.496;2023-04-25T01:44:59;14;14;
77515;PMS5003;66627;29.424;-98.496;2023-04-25T01:47:25;12;12;
77515;PMS5003;66627;29.424;-98.496;2023-04-25T01:49:50;14;13;
77515;PMS5003;66627;29.424;-98.496;2023-04-25T01:52:16;12;12;
77515;PMS5003;66627;29.424;-98.496;2023-04-25T01:54:40;13;12;
77515;PMS5003;66627;29.424;-98.496;2023-04-25T01:57:05;17;13;
77515;PMS5003;66627;29.424;-98.496;2023-04-25T01:59:31;17;16;
77515;PMS5003;66627;29.424;-98.496;2023-04-25T02:01:56;16;15;
77515;PMS5003;66627;29.424;-98.496;2023-04-25T02:04:22;16;16;
77515;PMS5003;66627;29.424;-98.496;2023-04-25T02:06:47;13;13;
77515;PMS5003;66627;29.424;-98.496;2023-04-25T02:09:12;16;15;
77515;PMS5003;66627;29.424;-98.496;2023-04-25T02:11:37;15;15;
77515;PMS5003;66627;29.424;-98.496;2023-04-25T02:14:02;18;16;
77515;PMS5003;66627;29.424;-98.496;2023-04-25T02:16:27;15;14;
77515;PMS5003;66627;29.424;-98.496;2023-04-25T02:18:53;15;12;
77515;PMS5003;66627;29.424;-98.496;2023-04-25T02:21:18;14;14;
77515;PMS5003;66627;29.424;-98.496;2023-04-25T02:23:44;15;13;
77515;PMS5003;66627;29.424;-98.496;2023-04-25T02:26:09;22;20;
77515;PMS5003;66627;29.424;-98.496;2023-04-25T02:28:35;14;11;
77515;PMS5003;66627;29.424;-98.496;2023-04-25T02:31:01;18;15;
77515;PMS5003;66627;29.424;-98.496;2023-04-25T02:33:26;13;11;
77515;PMS5003;66627;29.424;-98.496;2023-04-25T02:35:51;13;13;
77515;PMS5003;66627;29.424;-98.496;2023-04-25T02:38:16;14;12;
77515;PMS5003;66627;29.424;-98.496;2023-04-25T02:40:41;12;12;
77515;PMS5003;66627;29.424;-98.496;2023-04-25T02:43:07;14;14;
77515;PMS5003;66627;29.424;-98.496;2023-04-25T02:45:32;14;12;
77515;PMS5003;66627;29.424;-98.496;2023-04-25T02:47:57;13;13;
77515;PMS5003;66627;29.424;-98.496;2023-04-25T02:50:22;16;14;
77515;PMS5003;66627;29.424;-98.496;2023-04-25T02:52:48;16;16;
77515;PMS5003;66627;29.424;-98.496;2023-04-25T02:55:14;14;11;
77515;PMS5003;66627;29.424;-98.496;2023-04-25T02:57:39;16;16;
77515;PMS5003;66627;29.424;-98.496;2023-04-25T03:00:06;12;12;
77515;PMS5003;66627;29.424;-98.496;2023-04-25T03:02:31;13;13;
77515;PMS5003;66627;29.424;-98.496;2023-04-25T03:04:57;11;11;
77515;PMS5003;66627;29.424;-98.496;2023-04-25T03:07:22;14;14;
77515;PMS5003;66627;29.424;-98.496;2023-04-25T03:09:48;13;13;
77515;PMS5003;66627;29.424;-98.496;2023-04-25T03:12:13;11;10;
77515;PMS5003;66627;29.424;-98.496;2023-04-25T03:14:38;15;15;
77515;PMS5003;66627;29.424;-98.496;2023-04-25T03:17:04;13;13;
77515;PMS5003;66627;29.424;-98.496;2023-04-25T03:19:29;13;12;
77515;PMS5003;66627;29.424;-98.496;2023-04-25T03:21:55;13;13;
77515;PMS5003;66627;29.424;-98.496;2023-04-25T03:24:20;14;14;
77515;PMS5003;66627;29.424;-98.496;2023-04-25T03:26:45;12;12;
77515;PMS5003;66627;29.424;-98.496;2023-04-25T03:29:11;10;10;
77515;PMS5003;66627;29.424;-98.496;2023-04-25T03:31:36;11;11;
77515;PMS5003;66627;29.424;-98.496;2023-04-25T03:34:02;14;14;
77515;PMS5003;66627;29.424;-98.496;2023-04-25T03:36:27;16;14;
77515;PMS5003;66627;29.424;-98.496;2023-04-25T03:38:52;14;14;
77515;PMS5003;66627;29.424;-98.496;2023-04-25T03:41:18;17;15;
77515;PMS5003;66627;29.424;-98.496;2023-04-25T03:43:44;15;14;
77515;PMS5003;66627;29.424;-98.496;2023-04-25T03:46:09;15;13;
77515;PMS5003;66627;29.424;-98.496;2023-04-25T03:48:34;14;13;
77515;PMS5003;66627;29.424;-98.496;2023-04-25T03:51:00;13;12;
77515;PMS5003;66627;29.424;-98.496;2023-04-25T03:53:25;12;12;
77515;PMS5003;66627;29.424;-98.496;2023-04-25T03:55:50;17;17;
77515;PMS5003;66627;29.424;-98.496;2023-04-25T03:58:15;11;11;
77515;PMS5003;66627;29.424;-98.496;2023-04-25T04:00:41;15;14;
77515;PMS5003;66627;29.424;-98.496;2023-04-25T04:03:06;18;17;
77515;PMS5003;66627;29.424;-98.496;2023-04-25T04:05:32;12;12;
77515;PMS5003;66627;29.424;-98.496;2023-04-25T04:07:57;18;16;
77515;PMS5003;66627;29.424;-98.496;2023-04-25T04:10:23;13;13;
77515;PMS5003;66627;29.424;-98.496;2023-04-25T04:12:48;11;10;
77515;PMS5003;66627;29.424;-98.496;2023-04-25T04:15:13;12;11;
77515;PMS5003;66627;29.424;-98.496;2023-04-25T04:17:38;15;14;
77515;PMS5003;66627;29.424;-98.496;2023-04-25T04:20:04;13;13;
77515;PMS5003;66627;29.424;-98.496;2023-04-25T04:22:29;12;12;
77515;PMS5003;66627;29.424;-98.496;2023-04-25T04:24:55;15;12;
77515;PMS5003;66627;29.424;-98.496;2023-04-25T04:27:20;15;12;
77515;PMS5003;66627;29.424;-98.496;2023-04-25T04:29:45;11;11;
77515;PMS5003;66627;29.424;-98.496;2023-04-25T04:32:11;13;13;
77515;PMS5003;66627;29.424;-98.496;2023-04-25T04:34:36;14;13;
77515;PMS5003;66627;29.424;-98.496;2023-04-25T04:37:02;14;14;
77515;PMS5003;66627;29.424;-98.496;2023-04-25T04:39:27;18;16;
77515;PMS5003;66627;29.424;-98.496;2023-04-25T04:41:53;15;13;
77515;PMS5003;66627;29.424;-98.496;2023-04-25T04:44:20;14;11;
77515;PMS5003;66627;29.424;-98.496;2023-04-25T04:46:44;11;11;
77515;PMS5003;66627;29.424;-98.496;2023-04-25T04:49:09;13;13;
77515;PMS5003;66627;29.424;-98.496;2023-04-25T04:51:34;15;13;
77515;PMS5003;66627;29.424;-98.496;2023-04-25T04:54:00;13;13;
77515;PMS5003;66627;29.424;-98.496;2023-04-25T04:56:25;13;13;
77515;PMS5003;66627;29.424;-98.496;2023-04-25T04:58:50;17;16;
77515;PMS5003;66627;29.424;-98.496;2023-04-25T05:01:16;14;14;
77515;PMS5003;66627;29.424;-98.496;2023-04-25T05:03:42;13;13;
77515;PMS5003;66627;29.424;-98.496;2023-04-25T05:06:08;12;10;
77515;PMS5003;66627;29.424;-98.496;2023-04-25T05:08:33;14;14;
77515;PMS5003;66627;29.424;-98.496;2023-04-25T05:10:59;13;13;
77515;PMS5003;66627;29.424;-98.496;2023-04-25T05:13:24;16;14;
77515;PMS5003;66627;29.424;-98.496;2023-04-25T05:15:50;14;14;
77515;PMS5003;66627;29.424;-98.496;2023-04-25T05:18:15;17;16;
77515;PMS5003;66627;29.424;-98.496;2023-04-25T05:20:41;14;13;
77515;PMS5003;66627;29.424;-98.496;2023-04-25T05:23:06;16;16;
77515;PMS5003;66627;29.424;-98.496;2023-04-25T05:25:31;15;14;
77515;PMS5003;66627;29.424;-98.496;2023-04-25T05:27:56;15;15;
77515;PMS5003;66627;29.424;-98.496;2023-04-25T05:30:22;18;18;
77515;PMS5003;66627;29.424;-98.496;2023-04-25T05:32:47;14;12;
77515;PMS5003;66627;29.424;-98.496;2023-04-25T05:35:12;18;18;
77515;PMS5003;66627;29.424;-98.496;2023-04-25T05:37:37;18;15;
77515;PMS5003;66627;29.424;-98.496;2023-04-25T05:40:03;18;16;
77515;PMS5003;66627;29.424;-98.496;2023-04-25T05:42:28;14;14;
77515;PMS5003;66627;29.424;-98.496;2023-04-25T05:44:53;13;13;
77515;PMS5003;66627;29.424;-98.496;2023-04-25T05:47:19;19;18;
77515;PMS5003;66627;29.424;-98.496;2023-04-25T05:49:44;17;16;
77515;PMS5003;66627;29.424;-98.496;2023-04-25T05:52:10;20;20;
77515;PMS5003;66627;29.424;-98.496;2023-04-25T05:54:35;16;15;
77515;PMS5003;66627;29.424;-98.496;2023-04-25T05:57:00;15;15;
77515;PMS5003;66627;29.424;-98.496;2023-04-25T05:59:26;21;19;
77515;PMS5003;66627;29.424;-98.496;2023-04-25T06:01:51;16;16;
77515;PMS5003;66627;29.424;-98.496;2023-04-25T06:04:16;15;15;
77515;PMS5003;66627;29.424;-98.496;2023-04-25T06:06:42;13;12;
77515;PMS5003;66627;29.424;-98.496;2023-04-25T06:09:08;17;16;
77515;PMS5003;66627;29.424;-98.496;2023-04-25T06:11:33;21;19;
77515;PMS5003;66627;29.424;-98.496;2023-04-25T06:13:58;17;17;
77515;PMS5003;66627;29.424;-98.496;2023-04-25T06:16:24;14;14;
77515;PMS5003;66627;29.424;-98.496;2023-04-25T06:18:49;16;16;
77515;PMS5003;66627;29.424;-98.496;2023-04-25T06:21:15;16;16;
77515;PMS5003;66627;29.424;-98.496;2023-04-25T06:23:40;15;15;
77515;PMS5003;66627;29.424;-98.496;2023-04-25T06:26:06;20;19;
77515;PMS5003;66627;29.424;-98.496;2023-04-25T06:28:31;18;17;
77515;PMS5003;66627;29.424;-98.496;2023-04-25T06:30:57;18;17;
77515;PMS5003;66627;29.424;-98.496;2023-04-25T06:33:22;21;20;
77515;PMS5003;66627;29.424;-98.496;2023-04-25T06:35:47;23;20;
77515;PMS5003;66627;29.424;-98.496;2023-04-25T06:38:13;22;20;
77515;PMS5003;66627;29.424;-98.496;2023-04-25T06:40:39;18;17;
77515;PMS5003;66627;29.424;-98.496;2023-04-25T06:43:04;20;20;
77515;PMS5003;66627;29.424;-98.496;2023-04-25T06:45:29;21;19;
77515;PMS5003;66627;29.424;-98.496;2023-04-25T06:47:54;22;20;
77515;PMS5003;66627;29.424;-98.496;2023-04-25T06:50:20;20;18;
77515;PMS5003;66627;29.424;-98.496;2023-04-25T06:52:45;19;19;
77515;PMS5003;66627;29.424;-98.496;2023-04-25T06:55:11;16;16;
77515;PMS5003;66627;29.424;-98.496;2023-04-25T06:57:36;21;20;
77515;PMS5003;66627;29.424;-98.496;2023-04-25T07:00:02;20;20;
77515;PMS5003;66627;29.424;-98.496;2023-04-25T07:02:27;17;17;
77515;PMS5003;66627;29.424;-98.496;2023-04-25T07:04:53;14;14;
77515;PMS5003;66627;29.424;-98.496;2023-04-25T07:07:19;19;19;
77515;PMS5003;66627;29.424;-98.496;2023-04-25T07:09:44;21;20;
77515;PMS5003;66627;29.424;-98.496;2023-04-25T07:12:10;19;19;
77515;PMS5003;66627;29.424;-98.496;2023-04-25T07:14:35;24;22;
77515;PMS5003;66627;29.424;-98.496;2023-04-25T07:17:00;21;20;
77515;PMS5003;66627;29.424;-98.496;2023-04-25T07:19:26;21;19;
77515;PMS5003;66627;29.424;-98.496;2023-04-25T07:21:51;21;20;
77515;PMS5003;66627;29.424;-98.496;2023-04-25T07:24:17;25;20;
77515;PMS5003;66627;29.424;-98.496;2023-04-25T07:26:42;25;21;
77515;PMS5003;66627;29.424;-98.496;2023-04-25T07:29:07;18;18;
77515;PMS5003;66627;29.424;-98.496;2023-04-25T07:31:33;20;19;
77515;PMS5003;66627;29.424;-98.496;2023-04-25T07:33:59;25;25;
77515;PMS5003;66627;29.424;-98.496;2023-04-25T07:36:24;26;25;
77515;PMS5003;66627;29.424;-98.496;2023-04-25T07:38:50;24;24;
77515;PMS5003;66627;29.424;-98.496;2023-04-25T07:41:15;23;21;
77515;PMS5003;66627;29.424;-98.496;2023-04-25T07:43:41;25;22;
77515;PMS5003;66627;29.424;-98.496;2023-04-25T07:46:06;29;26;
77515;PMS5003;66627;29.424;-98.496;2023-04-25T07:48:31;23;22;
77515;PMS5003;66627;29.424;-98.496;2023-04-25T07:50:57;21;20;
77515;PMS5003;66627;29.424;-98.496;2023-04-25T07:53:23;23;21;
77515;PMS5003;66627;29.424;-98.496;2023-04-25T07:55:48;24;23;
77515;PMS5003;66627;29.424;-98.496;2023-04-25T07:58:14;26;25;
77515;PMS5003;66627;29.424;-98.496;2023-04-25T08:00:39;23;18;
77515;PMS5003;66627;29.424;-98.496;2023-04-25T08:03:05;21;19;
77515;PMS5003;66627;29.424;-98.496;2023-04-25T08:05:31;26;23;
77515;PMS5003;66627;29.424;-98.496;2023-04-25T08:07:57;23;21;
77515;PMS5003;66627;29.424;-98.496;2023-04-25T08:10:22;25;24;
77515;PMS5003;66627;29.424;-98.496;2023-04-25T08:12:47;26;23;
77515;PMS5003;66627;29.424;-98.496;2023-04-25T08:15:13;23;23;
77515;PMS5003;66627;29.424;-98.496;2023-04-25T08:17:38;26;24;
77515;PMS5003;66627;29.424;-98.496;2023-04-25T08:20:04;24;23;
77515;PMS5003;66627;29.424;-98.496;2023-04-25T08:22:30;21;21;
77515;PMS5003;66627;29.424;-98.496;2023-04-25T08:24:55;25;22;
77515;PMS5003;66627;29.424;-98.496;2023-04-25T08:27:20;21;21;
77515;PMS5003;66627;29.424;-98.496;2023-04-25T08:29:46;20;20;
77515;PMS5003;66627;29.424;-98.496;2023-04-25T08:32:11;23;22;
77515;PMS5003;66627;29.424;-98.496;2023-04-25T08:34:37;20;20;
77515;PMS5003;66627;29.424;-98.496;2023-04-25T08:37:02;26;25;
77515;PMS5003;66627;29.424;-98.496;2023-04-25T08:39:28;21;19;
77515;PMS5003;66627;29.424;-98.496;2023-04-25T08:41:53;26;24;
77515;PMS5003;66627;29.424;-98.496;2023-04-25T08:44:19;21;19;
77515;PMS5003;66627;29.424;-98.496;2023-04-25T08:46:45;21;21;
77515;PMS5003;66627;29.424;-98.496;2023-04-25T08:49:10;23;23;
77515;PMS5003;66627;29.424;-98.496;2023-04-25T08:51:36;24;23;
77515;PMS5003;66627;29.424;-98.496;2023-04-25T08:54:01;24;22;
77515;PMS5003;66627;29.424;-98.496;2023-04-25T08:56:26;21;21;
77515;PMS5003;66627;29.424;-98.496;2023-04-25T08:58:51;22;21;
77515;PMS5003;66627;29.424;-98.496;2023-04-25T09:01:17;27;27;
77515;PMS5003;66627;29.424;-98.496;2023-04-25T09:03:42;25;24;
77515;PMS5003;66627;29.424;-98.496;2023-04-25T09:06:09;22;22;
77515;PMS5003;66627;29.424;-98.496;2023-04-25T09:08:36;27;26;
77515;PMS5003;66627;29.424;-98.496;2023-04-25T09:11:00;24;24;
77515;PMS5003;66627;29.424;-98.496;2023-04-25T09:13:26;26;26;
77515;PMS5003;66627;29.424;-98.496;2023-04-25T09:15:50;21;21;
77515;PMS5003;66627;29.424;-98.496;2023-04-25T09:20:42;21;21;
77515;PMS5003;66627;29.424;-98.496;2023-04-25T09:23:07;22;21;
77515;PMS5003;66627;29.424;-98.496;2023-04-25T09:25:34;26;23;
77515;PMS5003;66627;29.424;-98.496;2023-04-25T09:27:58;20;20;
77515;PMS5003;66627;29.424;-98.496;2023-04-25T09:30:28;27;21;
77515;PMS5003;66627;29.424;-98.496;2023-04-25T09:32:50;21;21;
77515;PMS5003;66627;29.424;-98.496;2023-04-25T09:37:40;19;19;
77515;PMS5003;66627;29.424;-98.496;2023-04-25T09:40:06;25;23;
77515;PMS5003;66627;29.424;-98.496;2023-04-25T09:42:31;24;22;
77515;PMS5003;66627;29.424;-98.496;2023-04-25T09:44:56;20;18;
77515;PMS5003;66627;29.424;-98.496;2023-04-25T09:47:23;20;19;
77515;PMS5003;66627;29.424;-98.496;2023-04-25T09:49:47;19;18;
77515;PMS5003;66627;29.424;-98.496;2023-04-25T09:52:14;19;17;
77515;PMS5003;66627;29.424;-98.496;2023-04-25T09:54:38;21;21;
77515;PMS5003;66627;29.424;-98.496;2023-04-25T09:57:06;20;19;
77515;PMS5003;66627;29.424;-98.496;2023-04-25T09:59:29;23;21;
77515;PMS5003;66627;29.424;-98.496;2023-04-25T10:01:55;21;21;
77515;PMS5003;66627;29.424;-98.496;2023-04-25T10:04:23;18;18;
77515;PMS5003;66627;29.424;-98.496;2023-04-25T10:06:48;23;23;
77515;PMS5003;66627;29.424;-98.496;2023-04-25T10:09:11;23;23;
77515;PMS5003;66627;29.424;-98.496;2023-04-25T10:11:36;23;20;
77515;PMS5003;66627;29.424;-98.496;2023-04-25T10:14:03;27;23;
77515;PMS5003;66627;29.424;-98.496;2023-04-25T10:16:27;19;19;
77515;PMS5003;66627;29.424;-98.496;2023-04-25T10:18:53;20;20;
77515;PMS5003;66627;29.424;-98.496;2023-04-25T10:21:18;22;21;
77515;PMS5003;66627;29.424;-98.496;2023-04-25T10:23:44;21;21;
77515;PMS5003;66627;29.424;-98.496;2023-04-25T10:26:09;29;27;
77515;PMS5003;66627;29.424;-98.496;2023-04-25T10:31:00;21;18;
77515;PMS5003;66627;29.424;-98.496;2023-04-25T10:33:30;17;17;
77515;PMS5003;66627;29.424;-98.496;2023-04-25T10:35:51;21;20;
77515;PMS5003;66627;29.424;-98.496;2023-04-25T10:38:16;21;20;
77515;PMS5003;66627;29.424;-98.496;2023-04-25T10:40:41;28;22;
77515;PMS5003;66627;29.424;-98.496;2023-04-25T10:45:35;21;21;
77515;PMS5003;66627;29.424;-98.496;2023-04-25T10:47:58;22;21;
77515;PMS5003;66627;29.424;-98.496;2023-04-25T10:50:24;21;21;
77515;PMS5003;66627;29.424;-98.496;2023-04-25T10:52:49;23;20;
77515;PMS5003;66627;29.424;-98.496;2023-04-25T10:55:14;23;23;
77515;PMS5003;66627;29.424;-98.496;2023-04-25T10:57:41;22;21;
77515;PMS5003;66627;29.424;-98.496;2023-04-25T11:00:07;20;18;
77515;PMS5003;66627;29.424;-98.496;2023-04-25T11:02:31;34;29;
77515;PMS5003;66627;29.424;-98.496;2023-04-25T11:04:56;22;20;
77515;PMS5003;66627;29.424;-98.496;2023-04-25T11:07:26;23;21;
77515;PMS5003;66627;29.424;-98.496;2023-04-25T11:09:48;24;22;
77515;PMS5003;66627;29.424;-98.496;2023-04-25T11:12:13;28;26;
77515;PMS5003;66627;29.424;-98.496;2023-04-25T11:14:39;28;26;
77515;PMS5003;66627;29.424;-98.496;2023-04-25T11:17:04;24;24;
77515;PMS5003;66627;29.424;-98.496;2023-04-25T11:19:30;24;23;
77515;PMS5003;66627;29.424;-98.496;2023-04-25T11:21:55;23;22;
77515;PMS5003;66627;29.424;-98.496;2023-04-25T11:24:21;22;22;
77515;PMS5003;66627;29.424;-98.496;2023-04-25T11:26:46;27;26;
77515;PMS5003;66627;29.424;-98.496;2023-04-25T11:29:11;28;26;
77515;PMS5003;66627;29.424;-98.496;2023-04-25T11:31:37;26;23;
77515;PMS5003;66627;29.424;-98.496;2023-04-25T11:34:03;23;23;
77515;PMS5003;66627;29.424;-98.496;2023-04-25T11:36:28;23;23;
77515;PMS5003;66627;29.424;-98.496;2023-04-25T11:38:53;22;22;
77515;PMS5003;66627;29.424;-98.496;2023-04-25T11:41:19;24;23;
77515;PMS5003;66627;29.424;-98.496;2023-04-25T11:43:45;20;20;
77515;PMS5003;66627;29.424;-98.496;2023-04-25T11:46:10;21;20;
77515;PMS5003;66627;29.424;-98.496;2023-04-25T11:48:37;27;23;
77515;PMS5003;66627;29.424;-98.496;2023-04-25T11:51:00;22;22;
77515;PMS5003;66627;29.424;-98.496;2023-04-25T11:53:26;20;20;
77515;PMS5003;66627;29.424;-98.496;2023-04-25T11:55:51;21;21;
77515;PMS5003;66627;29.424;-98.496;2023-04-25T11:58:17;22;21;
77515;PMS5003;66627;29.424;-98.496;2023-04-25T12:00:42;23;22;
77515;PMS5003;66627;29.424;-98.496;2023-04-25T12:03:08;30;25;
77515;PMS5003;66627;29.424;-98.496;2023-04-25T12:05:33;21;21;
77515;PMS5003;66627;29.424;-98.496;2023-04-25T12:10:25;25;25;
77515;PMS5003;66627;29.424;-98.496;2023-04-25T12:12:50;23;23;
77515;PMS5003;66627;29.424;-98.496;2023-04-25T12:15:16;20;19;
77515;PMS5003;66627;29.424;-98.496;2023-04-25T12:17:41;23;20;
77515;PMS5003;66627;29.424;-98.496;2023-04-25T12:20:07;24;21;
77515;PMS5003;66627;29.424;-98.496;2023-04-25T12:22:32;24;24;
77515;PMS5003;66627;29.424;-98.496;2023-04-25T12:24:58;25;23;
77515;PMS5003;66627;29.424;-98.496;2023-04-25T12:27:25;31;29;
77515;PMS5003;66627;29.424;-98.496;2023-04-25T12:29:52;28;27;
77515;PMS5003;66627;29.424;-98.496;2023-04-25T12:32:14;30;27;
77515;PMS5003;66627;29.424;-98.496;2023-04-25T12:34:39;29;28;
77515;PMS5003;66627;29.424;-98.496;2023-04-25T12:37:05;36;30;
77515;PMS5003;66627;29.424;-98.496;2023-04-25T12:39:31;35;33;
77515;PMS5003;66627;29.424;-98.496;2023-04-25T12:41:56;34;32;
77515;PMS5003;66627;29.424;-98.496;2023-04-25T12:44:22;28;26;
77515;PMS5003;66627;29.424;-98.496;2023-04-25T12:46:48;39;35;
77515;PMS5003;66627;29.424;-98.496;2023-04-25T12:49:13;35;31;
77515;PMS5003;66627;29.424;-98.496;2023-04-25T12:51:38;32;30;
77515;PMS5003;66627;29.424;-98.496;2023-04-25T12:54:04;37;33;
77515;PMS5003;66627;29.424;-98.496;2023-04-25T12:56:29;29;25;
77515;PMS5003;66627;29.424;-98.496;2023-04-25T12:58:54;32;30;
77515;PMS5003;66627;29.424;-98.496;2023-04-25T13:01:20;30;27;
77515;PMS5003;66627;29.424;-98.496;2023-04-25T13:03:45;32;29;
77515;PMS5003;66627;29.424;-98.496;2023-04-25T13:06:11;28;26;
77515;PMS5003;66627;29.424;-98.496;2023-04-25T13:08:37;30;26;
77515;PMS5003;66627;29.424;-98.496;2023-04-25T13:11:03;36;32;
77515;PMS5003;66627;29.424;-98.496;2023-04-25T13:13:28;41;35;
77515;PMS5003;66627;29.424;-98.496;2023-04-25T13:15:53;34;33;
77515;PMS5003;66627;29.424;-98.496;2023-04-25T13:18:19;32;31;
77515;PMS5003;66627;29.424;-98.496;2023-04-25T13:20:45;29;26;
77515;PMS5003;66627;29.424;-98.496;2023-04-25T13:23:10;37;33;
77515;PMS5003;66627;29.424;-98.496;2023-04-25T13:25:35;34;31;
77515;PMS5003;66627;29.424;-98.496;2023-04-25T13:28:01;28;27;
77515;PMS5003;66627;29.424;-98.496;2023-04-25T13:30:26;31;27;
77515;PMS5003;66627;29.424;-98.496;2023-04-25T13:32:51;31;28;
77515;PMS5003;66627;29.424;-98.496;2023-04-25T13:35:21;26;26;
77515;PMS5003;66627;29.424;-98.496;2023-04-25T13:37:42;29;26;
77515;PMS5003;66627;29.424;-98.496;2023-04-25T13:40:08;27;25;
77515;PMS5003;66627;29.424;-98.496;2023-04-25T13:42:32;21;21;
77515;PMS5003;66627;29.424;-98.496;2023-04-25T13:44:58;31;24;
77515;PMS5003;66627;29.424;-98.496;2023-04-25T13:47:23;25;24;
77515;PMS5003;66627;29.424;-98.496;2023-04-25T13:49:49;27;25;
77515;PMS5003;66627;29.424;-98.496;2023-04-25T13:52:15;27;25;
77515;PMS5003;66627;29.424;-98.496;2023-04-25T13:54:40;32;32;
77515;PMS5003;66627;29.424;-98.496;2023-04-25T13:57:05;20;20;
77515;PMS5003;66627;29.424;-98.496;2023-04-25T13:59:31;27;25;
77515;PMS5003;66627;29.424;-98.496;2023-04-25T14:01:56;26;25;
77515;PMS5003;66627;29.424;-98.496;2023-04-25T14:04:22;25;24;
77515;PMS5003;66627;29.424;-98.496;2023-04-25T14:06:46;27;27;
77515;PMS5003;66627;29.424;-98.496;2023-04-25T14:09:12;23;21;
77515;PMS5003;66627;29.424;-98.496;2023-04-25T14:11:38;26;25;
77515;PMS5003;66627;29.424;-98.496;2023-04-25T14:14:04;21;18;
77515;PMS5003;66627;29.424;-98.496;2023-04-25T14:16:29;23;19;
77515;PMS5003;66627;29.424;-98.496;2023-04-25T14:18:54;26;24;
77515;PMS5003;66627;29.424;-98.496;2023-04-25T14:21:20;24;22;
77515;PMS5003;66627;29.424;-98.496;2023-04-25T14:23:45;27;26;
77515;PMS5003;66627;29.424;-98.496;2023-04-25T14:26:11;27;25;
77515;PMS5003;66627;29.424;-98.496;2023-04-25T14:28:37;25;23;
77515;PMS5003;66627;29.424;-98.496;2023-04-25T14:31:02;27;24;
77515;PMS5003;66627;29.424;-98.496;2023-04-25T14:33:27;27;21;
77515;PMS5003;66627;29.424;-98.496;2023-04-25T14:35:52;32;30;
77515;PMS5003;66627;29.424;-98.496;2023-04-25T14:38:17;24;21;
77515;PMS5003;66627;29.424;-98.496;2023-04-25T14:40:43;22;22;
77515;PMS5003;66627;29.424;-98.496;2023-04-25T14:43:08;27;26;
77515;PMS5003;66627;29.424;-98.496;2023-04-25T14:45:34;26;26;
77515;PMS5003;66627;29.424;-98.496;2023-04-25T14:47:59;24;23;
77515;PMS5003;66627;29.424;-98.496;2023-04-25T14:50:24;24;23;
77515;PMS5003;66627;29.424;-98.496;2023-04-25T14:52:50;29;25;
77515;PMS5003;66627;29.424;-98.496;2023-04-25T14:55:15;27;25;
77515;PMS5003;66627;29.424;-98.496;2023-04-25T14:57:40;27;24;
77515;PMS5003;66627;29.424;-98.496;2023-04-25T15:00:06;21;21;
77515;PMS5003;66627;29.424;-98.496;2023-04-25T15:02:33;26;24;
77515;PMS5003;66627;29.424;-98.496;2023-04-25T15:04:56;25;23;
77515;PMS5003;66627;29.424;-98.496;2023-04-25T15:07:22;28;25;
77515;PMS5003;66627;29.424;-98.496;2023-04-25T15:09:48;24;23;
77515;PMS5003;66627;29.424;-98.496;2023-04-25T15:12:13;28;26;
77515;PMS5003;66627;29.424;-98.496;2023-04-25T15:14:39;28;24;
77515;PMS5003;66627;29.424;-98.496;2023-04-25T15:17:04;30;24;
77515;PMS5003;66627;29.424;-98.496;2023-04-25T15:19:29;27;21;
77515;PMS5003;66627;29.424;-98.496;2023-04-25T15:21:54;24;24;
77515;PMS5003;66627;29.424;-98.496;2023-04-25T15:24:20;25;23;
77515;PMS5003;66627;29.424;-98.496;2023-04-25T15:26:46;25;23;
77515;PMS5003;66627;29.424;-98.496;2023-04-25T15:29:11;27;26;
77515;PMS5003;66627;29.424;-98.496;2023-04-25T15:31:36;25;24;
77515;PMS5003;66627;29.424;-98.496;2023-04-25T15:34:02;21;21;
77515;PMS5003;66627;29.424;-98.496;2023-04-25T15:36:27;22;22;
77515;PMS5003;66627;29.424;-98.496;2023-04-25T15:38:53;24;23;
77515;PMS5003;66627;29.424;-98.496;2023-04-25T15:41:18;29;24;
77515;PMS5003;66627;29.424;-98.496;2023-04-25T15:43:43;27;27;
77515;PMS5003;66627;29.424;-98.496;2023-04-25T15:46:09;22;22;
77515;PMS5003;66627;29.424;-98.496;2023-04-25T15:48:34;27;25;